createdAt,value
2023-03-11T00:01:21.287Z,-0.4
2023-03-11T00:06:21.331Z,-0.4
2023-03-11T00:11:21.282Z,-0.5
2023-03-11T00:16:21.390Z,-0.6
2023-03-11T00:21:21.287Z,-0.6
2023-03-11T00:26:21.335Z,-0.6
2023-03-11T00:31:21.364Z,-0.6
2023-03-11T00:36:21.370Z,-0.6
2023-03-11T00:41:21.300Z,-0.6
2023-03-11T00:46:21.403Z,-0.6
2023-03-11T00:51:21.288Z,-0.6
2023-03-11T00:56:21.337Z,-0.6
2023-03-11T01:01:21.396Z,-0.6
2023-03-11T01:06:21.341Z,-0.6
2023-03-11T01:11:21.287Z,-0.6
2023-03-11T01:16:21.489Z,-0.6
2023-03-11T01:21:21.284Z,-0.7
2023-03-11T01:26:21.350Z,-0.8
2023-03-11T01:31:21.410Z,-0.7
2023-03-11T01:36:21.332Z,-0.8
2023-03-11T01:41:21.268Z,-0.8
2023-03-11T01:46:21.404Z,-0.8
2023-03-11T01:51:21.271Z,-0.8
2023-03-11T01:56:21.384Z,-0.9
2023-03-11T02:01:21.284Z,-0.9
2023-03-11T02:06:21.348Z,-0.9
2023-03-11T02:11:21.282Z,-0.9
2023-03-11T02:16:21.427Z,-0.9
2023-03-11T02:21:21.296Z,-1.0
2023-03-11T02:26:21.361Z,-1.0
2023-03-11T02:31:21.361Z,-1.0
2023-03-11T02:36:21.360Z,-1.1
2023-03-11T02:41:21.305Z,-1.1
2023-03-11T02:46:21.387Z,-1.3
2023-03-11T02:51:21.295Z,-1.1
2023-03-11T02:56:21.348Z,-1.2
2023-03-11T03:01:21.310Z,-1.2
2023-03-11T03:06:21.349Z,-1.2
2023-03-11T03:11:21.291Z,-1.2
2023-03-11T03:16:21.452Z,-1.3
2023-03-11T03:21:21.285Z,-1.3
2023-03-11T03:26:21.356Z,-1.3
2023-03-11T03:31:21.361Z,-1.3
2023-03-11T03:36:21.358Z,-1.3
2023-03-11T03:41:21.289Z,-1.3
2023-03-11T03:46:21.457Z,-1.4
2023-03-11T03:51:21.295Z,-1.3
2023-03-11T03:56:21.352Z,-1.3
2023-03-11T04:01:21.303Z,-1.3
2023-03-11T04:06:21.367Z,-1.3
2023-03-11T04:11:21.293Z,-1.3
2023-03-11T04:16:21.524Z,-1.4
2023-03-11T04:21:21.310Z,-1.4
2023-03-11T04:26:21.358Z,-1.5
2023-03-11T04:31:21.353Z,-1.5
2023-03-11T04:36:21.382Z,-1.5
2023-03-11T04:41:21.300Z,-1.6
2023-03-11T04:46:21.376Z,-1.5
2023-03-11T04:51:21.313Z,-1.7
2023-03-11T04:56:21.352Z,-1.5
2023-03-11T05:01:21.351Z,-1.6
2023-03-11T05:06:21.353Z,-1.6
2023-03-11T05:11:21.305Z,-1.6
2023-03-11T05:16:21.425Z,-1.6
2023-03-11T05:21:21.302Z,-1.6
2023-03-11T05:26:21.348Z,-1.6
2023-03-11T05:31:21.332Z,-1.7
2023-03-11T05:36:21.394Z,-1.7
2023-03-11T05:41:21.305Z,-1.6
2023-03-11T05:46:21.433Z,-1.6
2023-03-11T05:51:21.334Z,-1.6
2023-03-11T05:56:21.362Z,-1.6
2023-03-11T06:01:21.320Z,-1.6
2023-03-11T06:06:21.403Z,-1.5
2023-03-11T06:11:21.317Z,-1.5
2023-03-11T06:16:21.396Z,-1.6
2023-03-11T06:21:21.306Z,-1.5
2023-03-11T06:26:21.402Z,-1.5
2023-03-11T06:31:21.389Z,-1.4
2023-03-11T06:36:21.363Z,-1.5
2023-03-11T06:41:21.309Z,-1.4
2023-03-11T06:46:21.425Z,-1.3
2023-03-11T06:51:21.313Z,-1.3
2023-03-11T06:56:21.363Z,-1.3
2023-03-11T07:01:21.395Z,-1.3
2023-03-11T07:06:21.361Z,-1.2
2023-03-11T07:11:21.309Z,-1.2
2023-03-11T07:16:21.488Z,-1.1
2023-03-11T07:21:21.336Z,-1.1
2023-03-11T07:26:21.365Z,-1.1
2023-03-11T07:31:21.371Z,-1.0
2023-03-11T07:36:21.933Z,-1.1
2023-03-11T07:41:21.891Z,-1.1
2023-03-11T07:46:21.909Z,-1.0
2023-03-11T07:51:21.301Z,-1.0
2023-03-11T07:56:21.408Z,-0.8
2023-03-11T08:01:21.316Z,-0.6
2023-03-11T08:06:21.379Z,-0.4
2023-03-11T08:11:21.312Z,-0.3
2023-03-11T08:16:21.402Z,-0.1
2023-03-11T08:21:21.312Z,0.4
2023-03-11T08:26:21.402Z,0.8
2023-03-11T08:31:21.379Z,1.2
2023-03-11T08:36:21.381Z,1.9
2023-03-11T08:41:21.328Z,3.1
2023-03-11T08:46:21.383Z,4.0
2023-03-11T08:51:21.321Z,4.1
2023-03-11T08:56:21.512Z,4.4
2023-03-11T09:01:21.313Z,4.3
2023-03-11T09:06:21.402Z,4.9
2023-03-11T09:11:21.319Z,4.9
2023-03-11T09:16:21.442Z,5.2
2023-03-11T09:21:21.338Z,4.8
2023-03-11T09:26:21.424Z,5.3
2023-03-11T09:31:21.396Z,5.7
2023-03-11T09:36:21.388Z,5.6
2023-03-11T09:41:21.329Z,5.7
2023-03-11T09:46:21.413Z,6.2
2023-03-11T09:51:21.311Z,5.7
2023-03-11T09:56:21.388Z,5.5
2023-03-11T10:01:21.315Z,5.5
2023-03-11T10:06:21.387Z,4.9
2023-03-11T10:11:21.306Z,4.5
2023-03-11T10:16:21.452Z,4.3
2023-03-11T10:21:22.082Z,5.7
2023-03-11T10:26:21.397Z,6.2
2023-03-11T10:31:21.372Z,5.3
2023-03-11T10:36:21.430Z,5.3
2023-03-11T10:41:21.353Z,5.5
2023-03-11T10:46:21.438Z,6.8
2023-03-11T10:51:21.345Z,6.0
2023-03-11T10:56:21.405Z,6.6
2023-03-11T11:01:21.397Z,5.9
2023-03-11T11:06:21.447Z,6.2
2023-03-11T11:11:21.462Z,6.3
2023-03-11T11:16:21.571Z,6.5
2023-03-11T11:21:21.360Z,6.9
2023-03-11T11:26:21.536Z,6.8
2023-03-11T11:31:21.382Z,6.6
2023-03-11T11:36:21.481Z,7.0
2023-03-11T11:41:21.378Z,6.7
2023-03-11T11:46:21.548Z,6.6
2023-03-11T11:51:21.387Z,6.2
2023-03-11T11:56:21.433Z,6.0
2023-03-11T12:01:21.374Z,6.0
2023-03-11T12:06:21.473Z,5.8
2023-03-11T12:11:21.373Z,6.1
2023-03-11T12:16:21.475Z,5.8
2023-03-11T12:21:21.383Z,5.8
2023-03-11T12:26:21.455Z,6.0
2023-03-11T12:31:21.426Z,5.8
2023-03-11T12:36:21.468Z,5.7
2023-03-11T12:41:21.374Z,5.7
2023-03-11T12:46:21.468Z,5.9
2023-03-11T12:51:21.384Z,6.0
2023-03-11T12:56:21.559Z,6.0
2023-03-11T13:01:21.441Z,6.2
2023-03-11T13:06:21.574Z,5.9
2023-03-11T13:11:21.431Z,5.9
2023-03-11T13:16:21.640Z,5.9
2023-03-11T13:21:21.436Z,6.0
2023-03-11T13:26:21.538Z,6.2
2023-03-11T13:31:21.532Z,6.0
2023-03-11T13:36:21.547Z,6.2
2023-03-11T13:41:21.442Z,6.4
2023-03-11T13:46:21.603Z,6.6
2023-03-11T13:51:21.494Z,6.5
2023-03-11T13:56:21.576Z,6.7
2023-03-11T14:01:21.592Z,6.9
2023-03-11T14:06:21.626Z,6.5
2023-03-11T14:11:21.480Z,6.2
2023-03-11T14:16:21.614Z,6.3
2023-03-11T14:21:21.481Z,6.5
2023-03-11T14:26:21.573Z,6.5
2023-03-11T14:31:21.554Z,6.1
2023-03-11T14:36:21.582Z,6.3
2023-03-11T14:41:21.490Z,6.2
2023-03-11T14:46:21.702Z,6.1
2023-03-11T14:51:21.474Z,6.1
2023-03-11T14:56:21.581Z,6.0
2023-03-11T15:01:21.597Z,6.0
2023-03-11T15:06:21.549Z,6.0
2023-03-11T15:11:21.495Z,5.9
2023-03-11T15:16:21.621Z,5.8
2023-03-11T15:21:21.496Z,5.9
2023-03-11T15:26:21.594Z,5.8
2023-03-11T15:31:21.526Z,5.7
2023-03-11T15:36:21.549Z,5.7
2023-03-11T15:41:21.484Z,5.8
2023-03-11T15:46:21.689Z,5.7
2023-03-11T15:51:21.487Z,5.5
2023-03-11T15:56:21.600Z,5.5
2023-03-11T16:01:21.502Z,5.4
2023-03-11T16:06:21.554Z,5.4
2023-03-11T16:11:21.524Z,5.4
2023-03-11T16:16:21.668Z,5.4
2023-03-11T16:21:21.531Z,5.3
2023-03-11T16:26:21.575Z,5.3
2023-03-11T16:31:21.619Z,5.2
2023-03-11T16:36:21.633Z,5.1
2023-03-11T16:41:21.614Z,5.0
2023-03-11T16:46:21.685Z,4.8
2023-03-11T16:51:21.557Z,4.8
2023-03-11T16:56:21.687Z,4.8
2023-03-11T17:01:21.708Z,4.8
2023-03-11T17:06:21.634Z,4.7
2023-03-11T17:11:21.557Z,4.7
2023-03-11T17:16:21.791Z,4.6
2023-03-11T17:21:21.585Z,4.5
2023-03-11T17:26:21.660Z,4.5
2023-03-11T17:31:21.635Z,4.5
2023-03-11T17:36:21.716Z,4.5
2023-03-11T17:41:21.610Z,4.4
2023-03-11T17:46:21.762Z,4.4
2023-03-11T17:51:21.592Z,4.4
2023-03-11T17:56:21.730Z,4.3
2023-03-11T18:01:21.598Z,4.3
2023-03-11T18:06:21.726Z,4.3
2023-03-11T18:11:21.607Z,4.2
2023-03-11T18:16:21.723Z,4.2
2023-03-11T18:21:21.596Z,4.2
2023-03-11T18:26:21.690Z,4.1
2023-03-11T18:31:21.643Z,4.1
2023-03-11T18:36:21.705Z,4.1
2023-03-11T18:41:21.603Z,4.0
2023-03-11T18:46:21.842Z,4.0
2023-03-11T18:51:21.624Z,4.0
2023-03-11T18:56:21.664Z,4.0
2023-03-11T19:01:21.776Z,4.0
2023-03-11T19:06:21.668Z,3.9
2023-03-11T19:11:21.616Z,3.8
2023-03-11T19:16:21.737Z,3.9
2023-03-11T19:21:21.633Z,3.9
2023-03-11T19:26:30.750Z,3.8
2023-03-11T19:31:21.708Z,3.8
2023-03-11T19:36:21.781Z,3.8
2023-03-11T19:41:21.687Z,3.7
2023-03-11T19:46:21.890Z,3.7
2023-03-11T19:51:21.693Z,3.7
2023-03-11T19:56:21.823Z,3.6
2023-03-11T20:01:21.713Z,3.5
2023-03-11T20:06:21.870Z,3.5
2023-03-11T20:11:21.759Z,3.5
2023-03-11T20:16:21.884Z,3.4
2023-03-11T20:21:21.765Z,3.4
2023-03-11T20:26:21.815Z,3.4
2023-03-11T20:31:21.809Z,3.3
2023-03-11T20:36:22.029Z,3.3
2023-03-11T20:41:21.873Z,3.3
2023-03-11T20:46:21.895Z,3.2
2023-03-11T20:51:21.725Z,3.1
2023-03-11T20:56:21.837Z,2.9
2023-03-11T21:01:21.915Z,2.8
2023-03-11T21:06:21.834Z,2.7
2023-03-11T21:11:21.732Z,2.7
2023-03-11T21:16:21.903Z,2.8
2023-03-11T21:21:21.822Z,2.7
2023-03-11T21:26:21.781Z,2.7
2023-03-11T21:31:21.767Z,2.6
2023-03-11T21:36:21.888Z,2.6
2023-03-11T21:41:21.736Z,2.6
2023-03-11T21:46:21.918Z,2.6
2023-03-11T21:51:21.891Z,2.7
2023-03-11T21:56:21.991Z,2.6
2023-03-11T22:01:21.883Z,2.6
2023-03-11T22:06:21.920Z,2.6
2023-03-11T22:11:21.760Z,2.7
2023-03-11T22:16:21.971Z,2.7
2023-03-11T22:21:21.898Z,2.7
2023-03-11T22:26:21.835Z,2.6
2023-03-11T22:31:21.809Z,2.6
2023-03-11T22:36:21.922Z,2.5
2023-03-11T22:41:21.803Z,2.4
2023-03-11T22:46:21.894Z,2.4
2023-03-11T22:51:21.832Z,2.4
2023-03-11T22:56:21.951Z,2.4
2023-03-11T23:01:21.804Z,2.4
2023-03-11T23:06:21.947Z,2.3
2023-03-11T23:11:21.807Z,2.3
2023-03-11T23:16:21.961Z,2.3
2023-03-11T23:21:21.832Z,2.3
2023-03-11T23:26:21.873Z,2.3
2023-03-11T23:31:21.924Z,2.3
2023-03-11T23:36:21.927Z,2.3
2023-03-11T23:41:21.832Z,2.2
2023-03-11T23:46:21.906Z,2.2
2023-03-11T23:51:21.861Z,2.2
2023-03-11T23:56:21.944Z,2.2
